createdAt,value
2022-10-01T00:02:07.444Z,100144.00
2022-10-01T00:04:36.327Z,100138.78
2022-10-01T00:07:09.313Z,100130.44
2022-10-01T00:09:37.024Z,100126.22
2022-10-01T00:12:06.122Z,100117.50
2022-10-01T00:14:33.857Z,100120.03
2022-10-01T00:17:01.579Z,100126.69
2022-10-01T00:19:29.439Z,100124.75
2022-10-01T00:21:57.109Z,100117.47
2022-10-01T00:24:24.879Z,100121.63
2022-10-01T00:26:53.140Z,100116.63
2022-10-01T00:29:22.247Z,100117.50
2022-10-01T00:31:50.406Z,100112.28
2022-10-01T00:34:18.167Z,100107.53
2022-10-01T00:36:46.494Z,100100.81
2022-10-01T00:39:14.760Z,100102.31
2022-10-01T00:41:43.306Z,100104.03
2022-10-01T00:44:34.958Z,100097.28
2022-10-01T00:47:08.499Z,100085.47
2022-10-01T00:49:38.668Z,100087.78
2022-10-01T00:52:09.887Z,100086.28
2022-10-01T00:54:42.814Z,100078.78
2022-10-01T00:57:11.482Z,100078.19
2022-10-01T00:59:40.749Z,100076.94
2022-10-01T01:04:44.777Z,100067.19
2022-10-01T01:07:13.108Z,100069.59
2022-10-01T01:09:45.442Z,100065.84
2022-10-01T01:12:31.880Z,100060.88
2022-10-01T01:15:11.546Z,100048.78
2022-10-01T01:17:49.141Z,100041.72
2022-10-01T01:20:41.219Z,100036.09
2022-10-01T01:23:38.894Z,100037.53
2022-10-01T01:26:16.170Z,100024.63
2022-10-01T01:28:48.934Z,100031.66
2022-10-01T01:31:23.002Z,100032.47
2022-10-01T01:33:53.031Z,100020.56
2022-10-01T01:36:27.381Z,100007.41
2022-10-01T01:38:59.353Z,100009.44
2022-10-01T01:41:30.217Z,100014.66
2022-10-01T01:44:02.221Z,100004.00
2022-10-01T01:46:33.717Z,100000.31
2022-10-01T01:49:04.410Z,99997.31
2022-10-01T01:51:37.034Z,99987.53
2022-10-01T01:54:04.893Z,99990.31
2022-10-01T01:56:34.272Z,99989.41
2022-10-01T01:59:04.016Z,99982.31
2022-10-01T02:01:34.309Z,99974.78
2022-10-01T02:04:04.736Z,99977.19
2022-10-01T02:06:42.814Z,99972.81
2022-10-01T02:09:22.553Z,99978.19
2022-10-01T02:12:03.559Z,99963.19
2022-10-01T02:14:39.487Z,99962.34
2022-10-01T02:17:16.509Z,99958.44
2022-10-01T02:19:55.966Z,99954.44
2022-10-01T02:22:29.055Z,99949.53
2022-10-01T02:25:01.533Z,99947.19
2022-10-01T02:27:32.251Z,99947.66
2022-10-01T02:30:08.693Z,99950.38
2022-10-01T02:32:38.489Z,99943.06
2022-10-01T02:35:08.105Z,99941.84
2022-10-01T02:37:40.158Z,99938.09
2022-10-01T02:40:14.617Z,99932.59
2022-10-01T02:42:45.302Z,99923.47
2022-10-01T02:45:16.972Z,99926.84
2022-10-01T02:47:48.355Z,99927.41
2022-10-01T02:50:16.626Z,99911.38
2022-10-01T02:52:51.205Z,99914.72
2022-10-01T02:55:22.243Z,99912.41
2022-10-01T02:57:49.001Z,99904.28
2022-10-01T03:00:21.559Z,99892.22
2022-10-01T03:02:49.954Z,99885.28
2022-10-01T03:05:20.787Z,99884.03
2022-10-01T03:07:48.855Z,99886.13
2022-10-01T03:10:17.559Z,99878.44
2022-10-01T03:12:46.574Z,99879.06
2022-10-01T03:15:16.049Z,99874.91
2022-10-01T03:17:45.221Z,99870.31
2022-10-01T03:20:13.581Z,99869.19
2022-10-01T03:22:41.245Z,99868.72
2022-10-01T03:25:09.907Z,99861.03
2022-10-01T03:27:37.943Z,99855.84
2022-10-01T03:30:09.277Z,99854.44
2022-10-01T03:32:37.462Z,99862.56
2022-10-01T03:35:07.462Z,99855.69
2022-10-01T03:37:35.104Z,99862.94
2022-10-01T03:40:03.131Z,99852.91
2022-10-01T03:42:30.828Z,99857.88
2022-10-01T03:44:58.492Z,99846.44
2022-10-01T03:47:26.236Z,99842.72
2022-10-01T03:49:53.885Z,99827.69
2022-10-01T03:52:22.910Z,99826.94
2022-10-01T03:54:50.608Z,99819.03
2022-10-01T03:57:18.343Z,99826.09
2022-10-01T03:59:45.997Z,99825.72
2022-10-01T04:02:13.985Z,99823.41
2022-10-01T04:04:41.764Z,99825.72
2022-10-01T04:07:09.538Z,99817.81
2022-10-01T04:09:38.624Z,99812.41
2022-10-01T04:12:06.312Z,99810.75
2022-10-01T04:14:35.319Z,99805.25
2022-10-01T04:17:03.075Z,99802.59
2022-10-01T04:19:33.108Z,99804.50
2022-10-01T04:22:00.843Z,99795.38
2022-10-01T04:24:28.532Z,99785.88
2022-10-01T04:26:57.569Z,99775.66
2022-10-01T04:29:25.246Z,99786.50
2022-10-01T04:31:53.403Z,99768.34
2022-10-01T04:34:41.290Z,99773.53
2022-10-01T04:37:10.035Z,99770.47
2022-10-01T04:39:37.921Z,99760.59
2022-10-01T04:42:07.331Z,99752.44
2022-10-01T04:44:35.393Z,99750.41
2022-10-01T04:47:03.214Z,99742.88
2022-10-01T04:49:33.452Z,99743.25
2022-10-01T04:52:01.895Z,99737.69
2022-10-01T04:54:29.638Z,99730.16
2022-10-01T04:56:58.227Z,99728.72
2022-10-01T04:59:27.541Z,99721.06
2022-10-01T05:01:55.514Z,99719.94
2022-10-01T05:04:23.290Z,99710.16
2022-10-01T05:06:52.710Z,99710.00
2022-10-01T05:09:20.356Z,99716.50
2022-10-01T05:11:51.927Z,99713.78
2022-10-01T05:14:20.779Z,99713.84
2022-10-01T05:16:49.794Z,99698.28
2022-10-01T05:19:17.510Z,99699.03
2022-10-01T05:21:46.135Z,99694.22
2022-10-01T05:24:14.176Z,99692.88
2022-10-01T05:26:41.882Z,99689.78
2022-10-01T05:29:10.010Z,99695.72
2022-10-01T05:31:38.162Z,99689.03
2022-10-01T05:34:09.054Z,99684.06
2022-10-01T05:36:36.870Z,99683.69
2022-10-01T05:39:04.801Z,99683.53
2022-10-01T05:41:32.866Z,99679.03
2022-10-01T05:44:00.849Z,99677.50
2022-10-01T05:46:28.634Z,99673.28
2022-10-01T05:48:56.322Z,99670.97
2022-10-01T05:51:25.786Z,99672.25
2022-10-01T05:53:56.204Z,99663.09
2022-10-01T05:56:24.190Z,99652.47
2022-10-01T05:58:52.167Z,99651.03
2022-10-01T06:01:19.836Z,99655.69
2022-10-01T06:03:51.209Z,99647.13
2022-10-01T06:06:22.059Z,99648.19
2022-10-01T06:08:51.436Z,99642.31
2022-10-01T06:11:19.152Z,99639.09
2022-10-01T06:13:46.875Z,99634.03
2022-10-01T06:16:15.861Z,99630.59
2022-10-01T06:18:43.715Z,99633.00
2022-10-01T06:21:11.412Z,99634.66
2022-10-01T06:23:39.116Z,99623.97
2022-10-01T06:26:08.706Z,99618.72
2022-10-01T06:28:36.453Z,99620.34
2022-10-01T06:31:05.734Z,99613.88
2022-10-01T06:33:33.454Z,99609.09
2022-10-01T06:36:01.231Z,99595.00
2022-10-01T06:38:28.915Z,99599.16
2022-10-01T06:40:59.158Z,99591.31
2022-10-01T06:43:31.244Z,99584.63
2022-10-01T06:46:02.347Z,99591.09
2022-10-01T06:48:31.397Z,99589.44
2022-10-01T06:50:59.964Z,99589.38
2022-10-01T06:53:28.179Z,99580.13
2022-10-01T06:55:56.636Z,99584.94
2022-10-01T06:58:26.548Z,99579.66
2022-10-01T07:01:01.302Z,99575.91
2022-10-01T07:03:29.429Z,99576.50
2022-10-01T07:06:03.182Z,99577.78
2022-10-01T07:08:31.111Z,99577.09
2022-10-01T07:11:03.391Z,99579.44
2022-10-01T07:13:31.294Z,99571.00
2022-10-01T07:16:00.403Z,99573.03
2022-10-01T07:18:28.381Z,99572.00
2022-10-01T07:20:57.654Z,99568.63
2022-10-01T07:23:25.595Z,99573.94
2022-10-01T07:25:53.458Z,99575.38
2022-10-01T07:28:25.442Z,99564.69
2022-10-01T07:31:01.144Z,99572.94
2022-10-01T07:33:29.140Z,99573.94
2022-10-01T07:35:56.895Z,99566.03
2022-10-01T07:38:24.628Z,99574.25
2022-10-01T07:40:53.082Z,99573.53
2022-10-01T07:43:20.887Z,99569.78
2022-10-01T07:45:49.763Z,99572.13
2022-10-01T07:48:19.292Z,99580.16
2022-10-01T07:50:47.234Z,99570.50
2022-10-01T07:53:15.178Z,99572.19
2022-10-01T07:55:44.651Z,99576.53
2022-10-01T07:58:12.982Z,99571.22
2022-10-01T08:00:40.895Z,99573.22
2022-10-01T08:03:12.673Z,99566.44
2022-10-01T08:05:43.180Z,99575.16
2022-10-01T08:08:10.868Z,99582.63
2022-10-01T08:10:39.834Z,99579.56
2022-10-01T08:13:14.334Z,99585.09
2022-10-01T08:15:42.773Z,99573.69
2022-10-01T08:18:11.192Z,99587.59
2022-10-01T08:20:40.918Z,99586.19
2022-10-01T08:23:10.251Z,99576.44
2022-10-01T08:25:38.809Z,99585.34
2022-10-01T08:28:07.428Z,99576.97
2022-10-01T08:30:38.380Z,99584.63
2022-10-01T08:33:08.118Z,99579.34
2022-10-01T08:35:40.091Z,99571.13
2022-10-01T08:38:09.764Z,99583.16
2022-10-01T08:40:43.709Z,99580.28
2022-10-01T08:43:21.402Z,99578.41
2022-10-01T08:45:52.423Z,99578.78
2022-10-01T08:48:31.102Z,99588.56
2022-10-01T08:51:05.273Z,99586.09
2022-10-01T08:53:38.683Z,99590.47
2022-10-01T08:56:07.800Z,99596.00
2022-10-01T08:58:45.738Z,99590.09
2022-10-01T09:01:13.514Z,99581.97
2022-10-01T09:03:42.121Z,99590.09
2022-10-01T09:06:20.219Z,99595.28
2022-10-01T09:09:15.324Z,99586.44
2022-10-01T09:11:53.272Z,99596.84
2022-10-01T09:14:37.415Z,99606.47
2022-10-01T09:17:12.239Z,99604.34
2022-10-01T09:19:57.995Z,99600.75
2022-10-01T09:22:37.616Z,99605.81
2022-10-01T09:25:25.926Z,99595.47
2022-10-01T09:28:01.730Z,99603.59
2022-10-01T09:30:30.971Z,99608.41
2022-10-01T09:33:03.624Z,99601.34
2022-10-01T09:35:40.348Z,99594.09
2022-10-01T09:38:16.828Z,99587.91
2022-10-01T09:40:53.428Z,99581.09
2022-10-01T09:43:23.249Z,99592.84
2022-10-01T09:45:52.004Z,99595.69
2022-10-01T09:48:30.232Z,99591.91
2022-10-01T09:51:02.869Z,99594.66
2022-10-01T09:53:37.837Z,99602.94
2022-10-01T09:56:14.506Z,99609.09
2022-10-01T09:58:47.642Z,99606.41
2022-10-01T10:01:24.503Z,99605.31
2022-10-01T10:03:57.364Z,99611.84
2022-10-01T10:06:30.533Z,99606.75
2022-10-01T10:09:00.296Z,99598.38
2022-10-01T10:11:32.263Z,99609.69
2022-10-01T10:14:03.426Z,99600.63
2022-10-01T10:16:35.208Z,99607.47
2022-10-01T10:19:09.538Z,99604.28
2022-10-01T10:21:37.966Z,99612.41
2022-10-01T10:24:08.007Z,99618.44
2022-10-01T10:26:39.390Z,99611.59
2022-10-01T10:29:09.568Z,99627.16
2022-10-01T10:31:42.576Z,99625.41
2022-10-01T10:34:16.742Z,99632.59
2022-10-01T10:36:46.626Z,99635.91
2022-10-01T10:39:20.896Z,99634.25
2022-10-01T10:41:52.674Z,99635.19
2022-10-01T10:44:24.260Z,99640.47
2022-10-01T10:46:54.953Z,99639.78
2022-10-01T10:49:29.444Z,99643.69
2022-10-01T10:52:00.755Z,99649.91
2022-10-01T10:54:32.413Z,99647.31
2022-10-01T10:57:03.796Z,99643.41
2022-10-01T10:59:33.456Z,99637.84
2022-10-01T11:02:03.525Z,99647.75
2022-10-01T11:04:40.711Z,99644.00
2022-10-01T11:07:10.856Z,99658.16
2022-10-01T11:09:56.971Z,99653.56
2022-10-01T11:12:40.723Z,99658.00
2022-10-01T11:15:26.145Z,99657.06
2022-10-01T11:18:15.826Z,99657.97
2022-10-01T11:20:54.194Z,99654.31
2022-10-01T11:23:40.898Z,99650.41
2022-10-01T11:26:22.168Z,99653.09
2022-10-01T11:29:05.069Z,99659.88
2022-10-01T11:31:39.150Z,99655.94
2022-10-01T11:34:29.145Z,99658.53
2022-10-01T11:37:05.283Z,99660.50
2022-10-01T11:39:36.584Z,99668.31
2022-10-01T11:42:08.874Z,99668.16
2022-10-01T11:44:42.712Z,99672.19
2022-10-01T11:47:16.373Z,99670.63
2022-10-01T11:49:55.054Z,99674.75
2022-10-01T11:52:33.733Z,99656.63
2022-10-01T11:55:35.271Z,99660.78
2022-10-01T11:58:30.716Z,99653.50
2022-10-01T12:01:09.279Z,99651.94
2022-10-01T12:04:00.638Z,99646.50
2022-10-01T12:06:40.672Z,99662.75
2022-10-01T12:09:23.977Z,99659.69
2022-10-01T12:12:02.451Z,99654.22
2022-10-01T12:14:38.301Z,99659.59
2022-10-01T12:17:18.337Z,99656.94
2022-10-01T12:19:52.653Z,99661.00
2022-10-01T12:22:25.871Z,99663.78
2022-10-01T12:24:55.508Z,99652.28
2022-10-01T12:27:47.950Z,99653.00
2022-10-01T12:30:20.584Z,99660.31
2022-10-01T12:33:05.245Z,99666.53
2022-10-01T12:35:49.183Z,99668.09
2022-10-01T12:38:35.525Z,99659.69
2022-10-01T12:41:10.691Z,99668.69
2022-10-01T12:44:03.832Z,99666.09
2022-10-01T12:46:41.601Z,99661.72
2022-10-01T12:49:22.565Z,99669.13
2022-10-01T12:51:57.790Z,99666.38
2022-10-01T12:54:43.447Z,99668.31
2022-10-01T12:57:33.225Z,99664.78
2022-10-01T13:00:10.831Z,99658.53
2022-10-01T13:03:20.969Z,99663.78
2022-10-01T13:06:06.721Z,99663.78
2022-10-01T13:08:47.114Z,99663.31
2022-10-01T13:11:30.914Z,99662.81
2022-10-01T13:14:00.878Z,99668.97
2022-10-01T13:16:37.627Z,99657.69
2022-10-01T13:19:14.462Z,99664.75
2022-10-01T13:22:00.866Z,99668.34
2022-10-01T13:24:34.050Z,99669.56
2022-10-01T13:27:08.808Z,99669.06
2022-10-01T13:29:47.734Z,99677.66
2022-10-01T13:32:31.054Z,99671.00
2022-10-01T13:35:00.990Z,99679.41
2022-10-01T13:37:39.773Z,99676.22
2022-10-01T13:40:24.534Z,99675.66
2022-10-01T13:42:54.117Z,99673.63
2022-10-01T13:45:26.931Z,99666.97
2022-10-01T13:48:13.774Z,99672.66
2022-10-01T13:50:53.999Z,99688.09
2022-10-01T13:53:25.961Z,99686.41
2022-10-01T13:55:56.811Z,99677.31
2022-10-01T13:58:33.459Z,99678.03
2022-10-01T14:01:04.095Z,99671.16
2022-10-01T14:03:43.415Z,99678.72
2022-10-01T14:06:18.292Z,99782.81
2022-10-01T14:08:51.231Z,99791.78
2022-10-01T14:11:43.189Z,99790.72
2022-10-01T14:14:31.873Z,99801.09
2022-10-01T14:17:01.394Z,99791.88
2022-10-01T14:19:29.467Z,99786.69
2022-10-01T14:22:14.001Z,99808.31
2022-10-01T14:24:58.983Z,99803.31
2022-10-01T14:27:34.227Z,99809.59
2022-10-01T14:30:07.912Z,99823.59
2022-10-01T14:32:51.002Z,99829.66
2022-10-01T14:35:30.069Z,99838.41
2022-10-01T14:38:01.252Z,99838.75
2022-10-01T14:40:38.931Z,99843.94
2022-10-01T14:43:17.549Z,99840.44
2022-10-01T14:45:53.854Z,99847.53
2022-10-01T14:48:22.830Z,99842.34
2022-10-01T14:50:52.973Z,99837.88
2022-10-01T14:53:24.060Z,99846.72
2022-10-01T14:55:55.897Z,99842.81
2022-10-01T14:58:28.466Z,99834.38
2022-10-01T15:00:57.708Z,99841.44
2022-10-01T15:03:25.889Z,99843.09
2022-10-01T15:06:03.993Z,99843.22
2022-10-01T15:08:40.551Z,99840.38
2022-10-01T15:11:14.499Z,99837.78
2022-10-01T15:13:45.001Z,99843.69
2022-10-01T15:16:15.332Z,99836.25
2022-10-01T15:18:47.782Z,99842.53
2022-10-01T15:21:20.070Z,99849.84
2022-10-01T15:23:49.740Z,99840.88
2022-10-01T15:26:23.260Z,99842.88
2022-10-01T15:28:51.137Z,99839.81
2022-10-01T15:31:20.000Z,99852.69
2022-10-01T15:33:48.581Z,99848.91
2022-10-01T15:36:19.472Z,99864.84
2022-10-01T15:38:48.775Z,99861.44
2022-10-01T15:41:31.848Z,99861.88
2022-10-01T15:44:03.080Z,99874.41
2022-10-01T15:46:33.312Z,99872.19
2022-10-01T15:49:21.464Z,99879.84
2022-10-01T15:52:07.500Z,99891.78
2022-10-01T15:54:36.254Z,99896.63
2022-10-01T15:57:06.404Z,99904.91
2022-10-01T15:59:35.124Z,99902.19
2022-10-01T16:02:09.770Z,99910.00
2022-10-01T16:04:37.780Z,99912.97
2022-10-01T16:07:05.549Z,99922.91
2022-10-01T16:09:33.346Z,99923.25
2022-10-01T16:12:06.700Z,99929.28
2022-10-01T16:14:37.492Z,99929.03
2022-10-01T16:17:33.879Z,99939.69
2022-10-01T16:20:23.635Z,99947.00
2022-10-01T16:22:51.290Z,99956.59
2022-10-01T16:25:32.614Z,99961.66
2022-10-01T16:28:04.182Z,99962.94
2022-10-01T16:30:33.871Z,99973.81
2022-10-01T16:33:05.977Z,99963.41
2022-10-01T16:35:36.058Z,99966.56
2022-10-01T16:38:06.664Z,99967.88
2022-10-01T16:40:39.251Z,99973.53
2022-10-01T16:43:09.140Z,99973.53
2022-10-01T16:45:40.386Z,99996.31
2022-10-01T16:48:14.592Z,100001.75
2022-10-01T16:50:42.756Z,100014.28
2022-10-01T16:53:13.032Z,100016.44
2022-10-01T16:55:40.800Z,100020.53
2022-10-01T16:58:10.723Z,100034.00
2022-10-01T17:00:38.760Z,100036.25
2022-10-01T17:03:08.959Z,100042.06
2022-10-01T17:05:38.560Z,100042.22
2022-10-01T17:08:11.070Z,100044.84
2022-10-01T17:10:42.137Z,100039.31
2022-10-01T17:13:12.489Z,100048.88
2022-10-01T17:15:40.671Z,100050.91
2022-10-01T17:18:08.878Z,100050.81
2022-10-01T17:20:38.049Z,100056.56
2022-10-01T17:23:06.354Z,100056.25
2022-10-01T17:25:36.171Z,100065.81
2022-10-01T17:28:08.674Z,100064.47
2022-10-01T17:30:40.263Z,100075.34
2022-10-01T17:33:09.446Z,100068.38
2022-10-01T17:35:41.700Z,100085.06
2022-10-01T17:38:09.611Z,100084.56
2022-10-01T17:40:37.872Z,100092.94
2022-10-01T17:43:06.770Z,100093.63
2022-10-01T17:45:34.490Z,100092.19
2022-10-01T17:48:04.623Z,100096.78
2022-10-01T17:50:32.350Z,100100.84
2022-10-01T17:53:00.710Z,100103.28
2022-10-01T17:55:28.827Z,100114.47
2022-10-01T17:57:57.181Z,100122.50
2022-10-01T18:00:24.938Z,100128.34
2022-10-01T18:02:53.682Z,100128.66
2022-10-01T18:05:22.786Z,100136.34
2022-10-01T18:07:50.552Z,100143.97
2022-10-01T18:10:18.509Z,100142.69
2022-10-01T18:12:46.347Z,100142.69
2022-10-01T18:15:14.551Z,100156.81
2022-10-01T18:17:43.787Z,100162.72
2022-10-01T18:20:20.296Z,100171.56
2022-10-01T18:22:49.812Z,100182.41
2022-10-01T18:25:19.331Z,100190.00
2022-10-01T18:27:50.149Z,100186.47
2022-10-01T18:30:20.123Z,100192.53
2022-10-01T18:32:51.877Z,100193.00
2022-10-01T18:35:23.407Z,100194.88
2022-10-01T18:37:55.862Z,100203.56
2022-10-01T18:40:28.242Z,100199.66
2022-10-01T18:43:00.905Z,100208.25
2022-10-01T18:45:51.381Z,100213.41
2022-10-01T18:48:44.273Z,100222.59
2022-10-01T18:51:21.557Z,100225.09
2022-10-01T18:54:07.040Z,100229.69
2022-10-01T18:56:36.733Z,100241.84
2022-10-01T18:59:27.014Z,100238.97
2022-10-01T19:02:06.220Z,100245.69
2022-10-01T19:04:47.280Z,100249.84
2022-10-01T19:07:29.905Z,100255.28
2022-10-01T19:10:11.980Z,100255.03
2022-10-01T19:12:50.539Z,100257.19
2022-10-01T19:15:27.958Z,100274.78
2022-10-01T19:18:16.205Z,100276.22
2022-10-01T19:20:56.792Z,100272.44
2022-10-01T19:23:46.670Z,100283.38
2022-10-01T19:26:23.432Z,100282.94
2022-10-01T19:29:03.788Z,100293.44
2022-10-01T19:31:36.906Z,100293.03
2022-10-01T19:34:10.815Z,100302.22
2022-10-01T19:36:42.243Z,100292.19
2022-10-01T19:39:16.930Z,100300.56
2022-10-01T19:41:52.225Z,100305.63
2022-10-01T19:44:28.182Z,100306.03
2022-10-01T19:47:05.294Z,100307.72
2022-10-01T19:49:36.231Z,100314.41
2022-10-01T19:52:12.540Z,100309.81
2022-10-01T19:54:45.944Z,100312.16
2022-10-01T19:57:22.469Z,100312.97
2022-10-01T19:59:50.598Z,100311.59
2022-10-01T20:02:32.888Z,100323.13
2022-10-01T20:05:05.727Z,100327.91
2022-10-01T20:07:42.135Z,100337.50
2022-10-01T20:10:19.979Z,100336.06
2022-10-01T20:12:59.749Z,100339.22
2022-10-01T20:15:40.400Z,100330.06
2022-10-01T20:18:18.961Z,100340.28
2022-10-01T20:20:57.422Z,100350.72
2022-10-01T20:23:38.710Z,100357.81
2022-10-01T20:26:16.559Z,100356.16
2022-10-01T20:28:55.433Z,100369.50
2022-10-01T20:31:29.169Z,100368.28
2022-10-01T20:34:06.920Z,100360.59
2022-10-01T20:36:41.837Z,100369.50
2022-10-01T20:39:18.201Z,100371.28
2022-10-01T20:41:49.131Z,100378.72
2022-10-01T20:44:22.630Z,100385.84
2022-10-01T20:46:54.502Z,100389.69
2022-10-01T20:49:29.617Z,100396.38
2022-10-01T20:52:05.270Z,100398.69
2022-10-01T20:54:37.441Z,100406.88
2022-10-01T20:57:15.207Z,100407.91
2022-10-01T20:59:47.271Z,100416.28
2022-10-01T21:02:26.893Z,100416.09
2022-10-01T21:05:01.854Z,100414.84
2022-10-01T21:07:37.326Z,100420.03
2022-10-01T21:10:15.006Z,100426.09
2022-10-01T21:12:51.630Z,100429.03
2022-10-01T21:15:24.607Z,100420.69
2022-10-01T21:18:00.798Z,100429.03
2022-10-01T21:20:55.580Z,100431.13
2022-10-01T21:23:38.122Z,100439.31
2022-10-01T21:26:14.907Z,100439.28
2022-10-01T21:29:22.015Z,100442.63
2022-10-01T21:32:03.571Z,100447.41
2022-10-01T21:34:43.460Z,100449.09
2022-10-01T21:37:16.266Z,100445.97
2022-10-01T21:39:56.869Z,100448.22
2022-10-01T21:42:36.003Z,100449.13
2022-10-01T21:45:17.296Z,100458.75
2022-10-01T21:48:03.535Z,100457.88
2022-10-01T21:50:43.636Z,100467.28
2022-10-01T21:53:28.835Z,100474.63
2022-10-01T21:56:14.576Z,100477.13
2022-10-01T21:58:55.463Z,100478.16
2022-10-01T22:01:35.323Z,100466.88
2022-10-01T22:04:13.837Z,100476.25
2022-10-01T22:06:46.739Z,100475.22
2022-10-01T22:09:19.749Z,100478.34
2022-10-01T22:11:50.657Z,100475.84
2022-10-01T22:14:20.121Z,100480.25
2022-10-01T22:16:52.521Z,100482.13
2022-10-01T22:19:26.951Z,100480.25
2022-10-01T22:22:00.124Z,100489.88
2022-10-01T22:24:33.120Z,100493.63
2022-10-01T22:27:07.775Z,100495.09
2022-10-01T22:29:41.358Z,100491.75
2022-10-01T22:32:13.293Z,100498.63
2022-10-01T22:34:47.217Z,100496.56
2022-10-01T22:37:18.451Z,100492.38
2022-10-01T22:39:51.146Z,100497.81
2022-10-01T22:42:25.184Z,100502.81
2022-10-01T22:44:55.973Z,100501.34
2022-10-01T22:47:55.165Z,100506.56
2022-10-01T22:50:45.328Z,100515.34
2022-10-01T22:53:30.268Z,100519.09
2022-10-01T22:55:58.711Z,100524.28
2022-10-01T22:58:41.953Z,100512.84
2022-10-01T23:01:24.284Z,100521.38
2022-10-01T23:04:08.955Z,100529.31
2022-10-01T23:06:43.049Z,100522.00
2022-10-01T23:09:16.427Z,100516.78
2022-10-01T23:11:54.628Z,100519.09
2022-10-01T23:14:50.349Z,100513.44
2022-10-01T23:17:23.850Z,100530.56
2022-10-01T23:20:04.459Z,100524.50
2022-10-01T23:22:49.562Z,100528.47
2022-10-01T23:25:23.754Z,100529.72
2022-10-01T23:28:03.348Z,100519.72
2022-10-01T23:30:42.922Z,100525.56
2022-10-01T23:33:29.940Z,100528.25
2022-10-01T23:36:04.909Z,100523.69
2022-10-01T23:38:57.304Z,100526.81
2022-10-01T23:41:33.477Z,100531.41
2022-10-01T23:44:08.927Z,100533.31
2022-10-01T23:46:39.668Z,100529.31
2022-10-01T23:49:13.354Z,100541.84
2022-10-01T23:51:47.514Z,100536.63
2022-10-01T23:54:24.723Z,100545.59
2022-10-01T23:56:56.502Z,100558.13
2022-10-01T23:59:29.624Z,100569.63
